Home > Products > Valid Products > MTR

000
SAUS44 KLCH 221555
MTRP92
METAR KP92 221553Z AUTO 11005KT 19/14 A3016 RMK AO1 SLP213 T01890144





000
SAUS44 KLCH 221454
MTRP92
METAR KP92 221453Z AUTO VRB04KT 18/13 A3015 RMK AO1 SLP210 T01780133
57004





000
SAUS44 KLCH 221401
MTRP92
NO CARRIER

RING

CONNECT 1200

MIARR7NRB ALL
TTAA00 KNRB 221400
.A KNRB 1122 DH1400/PPH 0.00





000
SAUS44 KLCH 221357 COR
MTRP92
METAR KP92 221353Z AUTO VRB04KT 16/13 A3015 RMK AO1 SLP210 T01610128





000
SAUS44 KLCH 221254
MTRP92
METAR KP92 221253Z AUTO VRB03KT 14/12 A3017 RMK AO1 SLP214 T01440117





000
SAUS44 KLCH 221155
MTRP92
METAR KP92 221153Z AUTO VRB04KT 13/11 A3016 RMK AO1 SLP214 T01330111
10139 20122 55009





000
SAUS44 KLCH 221054
MTRP92
METAR KP92 221053Z AUTO 00000KT 13/11 A3016 RMK AO1 SLP213 T01330111





000
SAUS44 KLCH 220955
MTRP92
METAR KP92 220953Z AUTO 00000KT 13/11 A3017 RMK AO1 SLP217 T01330106





000
SAUS44 KLCH 220955
MTRP92
METAR KP92 220953Z AUTO 00000KT 13/11 A3017 RMK AO1 SLP217 T01330106





000
SAUS44 KLCH 220854
MTRP92
METAR KP92 220853Z AUTO 00000KT 13/11 A3019 RMK AO1 SLP222 T01280106





000
SAUS44 KLCH 220754
MTRP92
METAR KP92 220753Z AUTO 00000KT 12/10 A3019 RMK AO1 SLP223 T01220100





000
SAUS44 KLCH 220655
MTRP92
METAR KP92 220653Z AUTO 00000KT 13/10 A3020 RMK AO1 SLP225 T01330100





000
SAUS44 KLCH 220555
MTRP92
METAR KP92 220553Z AUTO 00000KT 14/10 A3021 RMK AO1 SLP230 T01390100
10172 20139 402170128 58008





000
SAUS44 KLCH 220455
MTRP92
METAR KP92 220453Z AUTO VRB03KT 14/10 A3024 RMK AO1 SLP238 T01390100





000
SAUS44 KLCH 220355
MTRP92
METAR KP92 220353Z AUTO VRB03KT 14/10 A3023 RMK AO1 SLP237 T01440100





000
SAUS44 KLCH 220255
MTRP92
METAR KP92 220253Z AUTO VRB04KT 15/11 A3024 RMK AO1 SLP238 T01500106
51006





000
SAUS44 KLCH 220154
MTRP92
METAR KP92 220153Z AUTO VRB05KT 16/11 A3023 RMK AO1 SLP235 T01560106





000
SAUS44 KLCH 220055
MTRP92
METAR KP92 220053Z AUTO 11003KT 17/11 A3023 RMK AO1 SLP237 T01670106





000
SAUS44 KLCH 212354
MTRP92
METAR KP92 212353Z AUTO 11003KT 17/11 A3022 RMK AO1 SLP232 T01720111
10217 20172 51009





000
SAUS44 KLCH 212254
MTRP92
METAR KP92 212253Z AUTO 12007KT 19/11 A3021 RMK AO1 SLP230 T01890111





000
SAUS44 KLCH 212155
MTRP92
METAR KP92 212153Z AUTO 12008KT 20/11 A3021 RMK AO1 SLP228 T02000111





000
SAUS44 KLCH 212055
MTRP92
METAR KP92 212053Z AUTO 13011KT 21/11 A3019 RMK AO1 SLP223 T02110106
56015





000
SAUS44 KLCH 211954
MTRP92
METAR KP92 211953Z AUTO 12010G19KT 21/11 A3019 RMK AO1 SLP223
T02110111





000
SAUS44 KLCH 211855
MTRP92
METAR KP92 211853Z AUTO 12010G17KT 21/12 A3021 RMK AO1 SLP229
T02110117





000
SAUS44 KLCH 211754
MTRP92
METAR KP92 211753Z AUTO 12010G17KT 21/11 A3024 RMK AO1 SLP238
T02110111 10217 20144 58009





000
SAUS44 KLCH 211654
MTRP92
METAR KP92 211653Z AUTO 12012G19KT 21/11 A3025 RMK AO1 SLP243
T02060111





000
SAUS44 KLCH 211555
MTRP92
METAR KP92 211553Z AUTO 12007KT 21/12 A3026 RMK AO1 SLP247 T02060117





000
SAUS44 KLCH 211555
MTRP92
METAR KP92 211553Z AUTO 12007KT 21/12 A3026 RMK AO1 SLP247 T02060117





000
SAUS44 KLCH 211455
MTRP92
METAR KP92 211453Z AUTO 12006KT 19/12 A3026 RMK AO1 SLP247 T01890117
51017





000
SAUS44 KLCH 211355
MTRP92
METAR KP92 211353Z AUTO 11005KT 17/11 A3025 RMK AO1 SLP243 T01670111





000
SAUS44 KLCH 211254
MTRP92
METAR KP92 211253Z AUTO 11004KT 14/11 A3023 RMK AO1 SLP237 T01440106
$





000
SAUS44 KLCH 211154
MTRP92
METAR KP92 211153Z AUTO 12006KT 15/11 A3021 RMK AO1 SLP231 7////
T01500111 10150 20128 53003 $





000
SAUS44 KLCH 211054
MTRP92
METAR KP92 211053Z AUTO 11004KT 14/11 A3021 RMK AO1 SLP228 T01440106
$





000
SAUS44 KLCH 210954
MTRP92
METAR KP92 210953Z AUTO 11003KT 14/11 A3020 RMK AO1 SLP228 T01390106
$





000
SAUS44 KLCH 210854
MTRP92
METAR KP92 210853Z AUTO VRB03KT 13/11 A3021 RMK AO1 SLP228 T01330106
56001 $





000
SAUS44 KLCH 210754
MTRP92
METAR KP92 210753Z AUTO VRB03KT 14/11 A3021 RMK AO1 SLP228 T01390106
$





000
SAUS44 KLCH 210655
MTRP92
METAR KP92 210653Z AUTO 11004KT 13/10 A3020 RMK AO1 SLP226 T01280100
$





000
SAUS44 KLCH 210555
MTRP92
METAR KP92 210553Z AUTO 11004KT 13/10 A3021 RMK AO1 SLP229 T01330100
10161 20128 402060089 55002 $





000
SAUS44 KLCH 210454
MTRP92
METAR KP92 210453Z AUTO 11005KT 13/10 A3021 RMK AO1 SLP228 T01330100
$





000
SAUS44 KLCH 210354
MTRP92
METAR KP92 210353Z AUTO 11005KT 13/10 A3021 RMK AO1 SLP228 T01280100
$





000
SAUS44 KLCH 210354
MTRP92
METAR KP92 210353Z AUTO 11005KT 13/10 A3021 RMK AO1 SLP228 T01280100
$





000
SAUS44 KLCH 210254
MTRP92
METAR KP92 210253Z AUTO 12004KT 13/10 A3021 RMK AO1 SLP230 T01280100
51012 $





000
SAUS44 KLCH 210155
MTRP92
METAR KP92 210153Z AUTO 12005KT 14/11 A3020 RMK AO1 SLP226 T01440106
$





000
SAUS44 KLCH 210054
MTRP92
METAR KP92 210053Z AUTO 13004KT 15/11 A3019 RMK AO1 SLP223 T01500106
$





000
SAUS44 KLCH 202355
MTRP92
METAR KP92 202353Z AUTO 12006KT 16/11 A3018 RMK AO1 SLP218 6////
T01610106 10206 20161 $





000
SAUS44 KLCH 202254
MTRP92
METAR KP92 202253Z AUTO 14005KT 17/11 A3018 RMK AO1 SLP218 T01720111





000
SAUS44 KLCH 202155
MTRP92
METAR KP92 202153Z AUTO VRB04KT 18/11 A3017 RMK AO1 SLP217 T01780111





000
SAUS44 KLCH 202054
MTRP92
METAR KP92 202053Z AUTO VRB05KT 19/11 A3018 RMK AO1 SLP218 T01940106
56019





000
SAUS44 KLCH 201955
MTRP92
METAR KP92 201953Z AUTO VRB06KT 21/11 A3018 RMK AO1 SLP219 T02060106





000
SAUS44 KLCH 201854
MTRP92
METAR KP92 201853Z AUTO VRB06KT 21/10 A3020 RMK AO1 SLP227 T02060100





000
SAUS44 KLCH 201754
MTRP92
METAR KP92 201753Z AUTO 15007KT 120V210 20/10 A3023 RMK AO1 SLP237
60001 T02000100 10206 20100 58017





000
SAUS44 KLCH 201654
MTRP92
METAR KP92 201653Z AUTO 15005G15KT 19/10 A3026 RMK AO1 SLP247
T01940100





000
SAUS44 KLCH 201554
MTRP92
METAR KP92 201553Z AUTO 14007KT 19/10 A3028 RMK AO1 SLP253 T01890100





000
SAUS44 KLCH 201454
MTRP92
METAR KP92 201453Z AUTO 13006KT 17/10 A3028 RMK AO1 SLP253 60001
T01720100





000
SAUS44 KLCH 201354
MTRP92
METAR KP92 201353Z AUTO 12005KT 14/11 A3026 RMK AO1 SLP246 P0001
T01390106





000
SAUS44 KLCH 201255
MTRP92
METAR KP92 201253Z AUTO 11004KT 11/09 A3025 RMK AO1 SLP243 T01060089





000
SAUS44 KLCH 201154
MTRP92
METAR KP92 201153Z AUTO 11003KT 10/08 A3024 RMK AO1 SLP238 T01000083
10106 20089 55002 $





000
SAUS44 KLCH 201054
MTRP92
METAR KP92 201053Z AUTO 12003KT 10/08 A3023 RMK AO1 SLP235 T01000083
$





000
SAUS44 KLCH 200954
MTRP92
METAR KP92 200953Z AUTO 12003KT 09/08 A3023 RMK AO1 SLP236 T00940078
$





000
SAUS44 KLCH 200954
MTRP92
METAR KP92 200953Z AUTO 12003KT 09/08 A3023 RMK AO1 SLP236 T00940078
$





000
SAUS44 KLCH 200854
MTRP92
METAR KP92 200853Z AUTO 11003KT 09/08 A3024 RMK AO1 SLP240 T00890078
58009 $





000
SAUS44 KLCH 200754
MTRP92
METAR KP92 200753Z AUTO 10003KT 09/07 A3025 RMK AO1 SLP244 T00890072
$





000
SAUS44 KLCH 200654
MTRP92
METAR KP92 200653Z AUTO 10003KT 09/08 A3026 RMK AO1 SLP247 T00940078
$





000
SAUS44 KLCH 200554
MTRP92
METAR KP92 200553Z AUTO 11004KT 11/08 A3027 RMK AO1 SLP249 T01060083
10122 20106 401500017 58010 $





000
SAUS44 KLCH 200454
MTRP92
METAR KP92 200453Z AUTO 11005KT 11/08 A3028 RMK AO1 SLP254 T01060083
$





000
SAUS44 KLCH 200355
MTRP92
METAR KP92 200353Z AUTO 12005KT 11/08 A3030 RMK AO1 SLP259 T01060078
$





000
SAUS44 KLCH 200355
MTRP92
METAR KP92 200353Z AUTO 12005KT 11/08 A3030 RMK AO1 SLP259 T01060078
$





000
SAUS44 KLCH 200255
MTRP92
METAR KP92 200253Z AUTO 11005KT 11/08 A3030 RMK AO1 SLP260 T01060078
50002 $





000
SAUS44 KLCH 200154
MTRP92
METAR KP92 200153Z AUTO 12005KT 12/08 A3031 RMK AO1 SLP262 T01170078
$





000
SAUS44 KLCH 200055
MTRP92
METAR KP92 200053Z AUTO 12004KT 12/08 A3031 RMK AO1 SLP264 T01170083
$





000
SAUS44 KLCH 192355
MTRP92
METAR KP92 192353Z AUTO 12005KT 12/07 A3029 RMK AO1 SLP257 T01220072
10150 20117 56007 $





000
SAUS44 KLCH 192254
MTRP92
METAR KP92 192253Z AUTO 12003KT 13/07 A3029 RMK AO1 SLP257 T01330072
$





000
SAUS44 KLCH 192155
MTRP92
METAR KP92 192153Z AUTO 12007KT 15/07 A3029 RMK AO1 SLP258 T01500067
$





000
SAUS44 KLCH 192055
MTRP92
METAR KP92 192053Z AUTO VRB05KT 14/06 A3031 RMK AO1 SLP265 T01440056
56030 $





000
SAUS44 KLCH 191955
MTRP92
METAR KP92 191953Z AUTO VRB04KT 14/05 A3033 RMK AO1 SLP271 T01440050
$





000
SAUS44 KLCH 191854
MTRP92
METAR KP92 191853Z AUTO 15005KT 13/01 A3036 RMK AO1 SLP281 T01330011
$





000
SAUS44 KLCH 191755
MTRP92
METAR KP92 191753Z AUTO 13006KT 13/01 A3040 RMK AO1 SLP295 T01280011
10128 20017 58010 $





000
SAUS44 KLCH 191655
MTRP92
METAR KP92 191653Z AUTO 14006KT 12/00 A3041 RMK AO1 SLP298 T01220000
$





    US Dept of Commerce
    National Oceanic and Atmospheric Administration
    National Weather Service
    1325 East West Highway
    Silver Spring, MD 20910
    Page Author: NWS Internet Services Team
Disclaimer
Information Quality
Credits
Glossary
Privacy Policy
Freedom of Information Act (FOIA)
About Us
Career Opportunities